sensor_id;sensor_type;location;lat;lon;timestamp;temperature;humidity
44359;DHT22;30077;52.474;13.326;2023-07-09T00:04:52;21.40;90.70
44359;DHT22;30077;52.474;13.326;2023-07-09T00:09:54;21.30;90.90
44359;DHT22;30077;52.474;13.326;2023-07-09T00:14:55;21.30;91.10
44359;DHT22;30077;52.474;13.326;2023-07-09T00:19:57;21.20;91.30
44359;DHT22;30077;52.474;13.326;2023-07-09T00:24:58;21.20;91.70
44359;DHT22;30077;52.474;13.326;2023-07-09T00:29:59;21.10;91.80
44359;DHT22;30077;52.474;13.326;2023-07-09T00:35:00;21.10;92.10
44359;DHT22;30077;52.474;13.326;2023-07-09T00:40:08;21.00;92.40
44359;DHT22;30077;52.474;13.326;2023-07-09T00:45:24;21.00;92.70
44359;DHT22;30077;52.474;13.326;2023-07-09T00:50:38;20.90;93.20
44359;DHT22;30077;52.474;13.326;2023-07-09T00:55:42;20.80;93.60
44359;DHT22;30077;52.474;13.326;2023-07-09T01:00:50;20.80;94.10
44359;DHT22;30077;52.474;13.326;2023-07-09T01:06:00;20.70;94.60
44359;DHT22;30077;52.474;13.326;2023-07-09T01:11:01;20.60;94.90
44359;DHT22;30077;52.474;13.326;2023-07-09T01:16:02;20.60;95.30
44359;DHT22;30077;52.474;13.326;2023-07-09T01:21:08;20.50;95.60
44359;DHT22;30077;52.474;13.326;2023-07-09T01:26:19;20.50;95.90
44359;DHT22;30077;52.474;13.326;2023-07-09T01:31:22;20.50;96.40
44359;DHT22;30077;52.474;13.326;2023-07-09T01:36:24;20.40;96.80
44359;DHT22;30077;52.474;13.326;2023-07-09T01:41:26;20.40;97.30
44359;DHT22;30077;52.474;13.326;2023-07-09T01:46:27;20.30;97.60
44359;DHT22;30077;52.474;13.326;2023-07-09T01:51:29;20.20;98.10
44359;DHT22;30077;52.474;13.326;2023-07-09T01:56:29;20.20;98.60
44359;DHT22;30077;52.474;13.326;2023-07-09T02:01:31;20.20;99.20
44359;DHT22;30077;52.474;13.326;2023-07-09T02:06:34;20.10;99.40
44359;DHT22;30077;52.474;13.326;2023-07-09T02:11:34;20.10;99.90
44359;DHT22;30077;52.474;13.326;2023-07-09T02:16:35;20.00;99.90
44359;DHT22;30077;52.474;13.326;2023-07-09T02:21:36;20.00;99.90
44359;DHT22;30077;52.474;13.326;2023-07-09T02:26:36;19.90;99.90
44359;DHT22;30077;52.474;13.326;2023-07-09T02:31:37;19.90;99.90
44359;DHT22;30077;52.474;13.326;2023-07-09T02:36:38;19.90;99.90
44359;DHT22;30077;52.474;13.326;2023-07-09T02:41:44;19.90;99.90
44359;DHT22;30077;52.474;13.326;2023-07-09T02:46:44;19.90;99.90
44359;DHT22;30077;52.474;13.326;2023-07-09T02:51:46;19.80;99.90
44359;DHT22;30077;52.474;13.326;2023-07-09T02:56:47;19.70;99.90
44359;DHT22;30077;52.474;13.326;2023-07-09T03:01:48;19.70;99.90
44359;DHT22;30077;52.474;13.326;2023-07-09T03:06:49;19.70;99.90
44359;DHT22;30077;52.474;13.326;2023-07-09T03:11:50;19.60;99.90
44359;DHT22;30077;52.474;13.326;2023-07-09T03:16:51;19.60;99.90
44359;DHT22;30077;52.474;13.326;2023-07-09T03:21:51;19.60;99.90
44359;DHT22;30077;52.474;13.326;2023-07-09T03:26:52;19.70;99.90
44359;DHT22;30077;52.474;13.326;2023-07-09T03:31:53;19.70;99.90
44359;DHT22;30077;52.474;13.326;2023-07-09T03:36:53;19.80;99.90
44359;DHT22;30077;52.474;13.326;2023-07-09T03:41:54;19.90;99.90
44359;DHT22;30077;52.474;13.326;2023-07-09T03:46:55;20.00;99.90
44359;DHT22;30077;52.474;13.326;2023-07-09T03:51:55;20.10;99.90
44359;DHT22;30077;52.474;13.326;2023-07-09T03:56:56;20.20;99.90
44359;DHT22;30077;52.474;13.326;2023-07-09T04:01:57;20.40;99.90
44359;DHT22;30077;52.474;13.326;2023-07-09T04:06:58;20.50;99.90
44359;DHT22;30077;52.474;13.326;2023-07-09T04:11:59;20.60;99.90
44359;DHT22;30077;52.474;13.326;2023-07-09T04:17:02;20.80;99.90
44359;DHT22;30077;52.474;13.326;2023-07-09T04:22:03;20.90;99.90
44359;DHT22;30077;52.474;13.326;2023-07-09T04:27:04;21.00;99.90
44359;DHT22;30077;52.474;13.326;2023-07-09T04:32:06;21.30;99.90
44359;DHT22;30077;52.474;13.326;2023-07-09T04:37:10;21.40;99.90
44359;DHT22;30077;52.474;13.326;2023-07-09T04:42:13;21.40;99.90
44359;DHT22;30077;52.474;13.326;2023-07-09T04:47:15;21.60;99.90
44359;DHT22;30077;52.474;13.326;2023-07-09T04:52:15;21.60;99.90
44359;DHT22;30077;52.474;13.326;2023-07-09T04:57:16;21.70;99.90
44359;DHT22;30077;52.474;13.326;2023-07-09T05:02:17;21.80;99.90
44359;DHT22;30077;52.474;13.326;2023-07-09T05:07:18;21.90;99.90
44359;DHT22;30077;52.474;13.326;2023-07-09T05:12:19;22.10;99.90
44359;DHT22;30077;52.474;13.326;2023-07-09T05:17:21;22.10;99.90
44359;DHT22;30077;52.474;13.326;2023-07-09T05:22:22;22.40;99.60
44359;DHT22;30077;52.474;13.326;2023-07-09T05:27:23;22.60;98.90
44359;DHT22;30077;52.474;13.326;2023-07-09T05:32:23;22.40;98.80
44359;DHT22;30077;52.474;13.326;2023-07-09T05:37:24;22.50;98.60
44359;DHT22;30077;52.474;13.326;2023-07-09T05:42:25;22.50;98.90
44359;DHT22;30077;52.474;13.326;2023-07-09T05:47:26;22.70;98.30
44359;DHT22;30077;52.474;13.326;2023-07-09T05:52:28;22.70;98.20
44359;DHT22;30077;52.474;13.326;2023-07-09T05:57:29;23.10;98.40
44359;DHT22;30077;52.474;13.326;2023-07-09T06:02:30;23.10;98.30
44359;DHT22;30077;52.474;13.326;2023-07-09T06:07:31;23.40;98.10
44359;DHT22;30077;52.474;13.326;2023-07-09T06:12:32;23.50;97.60
44359;DHT22;30077;52.474;13.326;2023-07-09T06:17:34;23.50;97.20
44359;DHT22;30077;52.474;13.326;2023-07-09T06:22:35;23.40;97.10
44359;DHT22;30077;52.474;13.326;2023-07-09T06:27:36;23.50;97.30
44359;DHT22;30077;52.474;13.326;2023-07-09T06:32:37;23.70;97.60
44359;DHT22;30077;52.474;13.326;2023-07-09T06:37:37;23.50;96.90
44359;DHT22;30077;52.474;13.326;2023-07-09T06:42:38;23.60;97.20
44359;DHT22;30077;52.474;13.326;2023-07-09T06:47:39;23.80;97.60
44359;DHT22;30077;52.474;13.326;2023-07-09T06:52:40;23.80;97.10
44359;DHT22;30077;52.474;13.326;2023-07-09T06:57:41;23.80;96.70
44359;DHT22;30077;52.474;13.326;2023-07-09T07:02:41;24.00;97.10
44359;DHT22;30077;52.474;13.326;2023-07-09T07:07:42;24.20;96.70
44359;DHT22;30077;52.474;13.326;2023-07-09T07:12:45;24.20;96.70
44359;DHT22;30077;52.474;13.326;2023-07-09T07:17:47;24.20;96.60
44359;DHT22;30077;52.474;13.326;2023-07-09T07:22:48;24.40;96.80
44359;DHT22;30077;52.474;13.326;2023-07-09T07:27:49;24.50;96.60
44359;DHT22;30077;52.474;13.326;2023-07-09T07:32:51;24.50;96.50
44359;DHT22;30077;52.474;13.326;2023-07-09T07:37:54;24.40;97.00
44359;DHT22;30077;52.474;13.326;2023-07-09T07:42:55;24.60;96.50
44359;DHT22;30077;52.474;13.326;2023-07-09T07:47:56;24.60;96.60
44359;DHT22;30077;52.474;13.326;2023-07-09T07:52:56;24.60;96.20
44359;DHT22;30077;52.474;13.326;2023-07-09T07:57:57;24.70;96.40
44359;DHT22;30077;52.474;13.326;2023-07-09T08:03:03;24.80;96.00
44359;DHT22;30077;52.474;13.326;2023-07-09T08:08:04;25.00;96.00
44359;DHT22;30077;52.474;13.326;2023-07-09T08:13:05;25.30;96.00
44359;DHT22;30077;52.474;13.326;2023-07-09T08:18:05;25.20;95.90
44359;DHT22;30077;52.474;13.326;2023-07-09T08:23:06;25.40;96.10
44359;DHT22;30077;52.474;13.326;2023-07-09T08:28:07;25.50;95.30
44359;DHT22;30077;52.474;13.326;2023-07-09T08:33:07;25.60;95.30
44359;DHT22;30077;52.474;13.326;2023-07-09T08:38:08;25.70;95.30
44359;DHT22;30077;52.474;13.326;2023-07-09T08:43:31;26.00;94.60
44359;DHT22;30077;52.474;13.326;2023-07-09T08:48:39;26.00;93.70
44359;DHT22;30077;52.474;13.326;2023-07-09T08:53:57;25.90;93.80
44359;DHT22;30077;52.474;13.326;2023-07-09T08:59:02;25.70;94.20
44359;DHT22;30077;52.474;13.326;2023-07-09T09:04:21;25.90;93.90
44359;DHT22;30077;52.474;13.326;2023-07-09T09:09:57;26.10;93.70
44359;DHT22;30077;52.474;13.326;2023-07-09T09:15:14;26.40;93.30
44359;DHT22;30077;52.474;13.326;2023-07-09T09:20:19;26.30;92.60
44359;DHT22;30077;52.474;13.326;2023-07-09T09:25:28;26.20;92.80
44359;DHT22;30077;52.474;13.326;2023-07-09T09:30:31;26.10;93.00
44359;DHT22;30077;52.474;13.326;2023-07-09T09:35:40;26.30;92.00
44359;DHT22;30077;52.474;13.326;2023-07-09T09:40:42;26.50;91.30
44359;DHT22;30077;52.474;13.326;2023-07-09T09:45:44;26.90;89.30
44359;DHT22;30077;52.474;13.326;2023-07-09T09:50:47;27.20;86.00
44359;DHT22;30077;52.474;13.326;2023-07-09T09:55:48;27.50;84.10
44359;DHT22;30077;52.474;13.326;2023-07-09T10:00:51;27.70;83.10
44359;DHT22;30077;52.474;13.326;2023-07-09T10:05:55;27.80;84.10
44359;DHT22;30077;52.474;13.326;2023-07-09T10:11:08;27.90;84.60
44359;DHT22;30077;52.474;13.326;2023-07-09T10:16:29;27.90;82.80
44359;DHT22;30077;52.474;13.326;2023-07-09T10:21:45;28.00;84.30
44359;DHT22;30077;52.474;13.326;2023-07-09T10:26:53;27.90;86.60
44359;DHT22;30077;52.474;13.326;2023-07-09T10:32:21;28.00;86.00
44359;DHT22;30077;52.474;13.326;2023-07-09T10:37:56;28.20;83.40
44359;DHT22;30077;52.474;13.326;2023-07-09T10:43:04;28.10;84.20
44359;DHT22;30077;52.474;13.326;2023-07-09T10:48:20;28.30;83.90
44359;DHT22;30077;52.474;13.326;2023-07-09T10:53:43;28.30;82.20
44359;DHT22;30077;52.474;13.326;2023-07-09T10:58:56;28.30;80.90
44359;DHT22;30077;52.474;13.326;2023-07-09T11:04:05;28.40;80.70
44359;DHT22;30077;52.474;13.326;2023-07-09T11:09:32;28.40;80.50
44359;DHT22;30077;52.474;13.326;2023-07-09T11:14:43;28.50;82.30
44359;DHT22;30077;52.474;13.326;2023-07-09T11:19:54;28.70;80.30
44359;DHT22;30077;52.474;13.326;2023-07-09T11:25:11;28.90;80.20
44359;DHT22;30077;52.474;13.326;2023-07-09T11:30:25;28.90;80.20
44359;DHT22;30077;52.474;13.326;2023-07-09T11:35:29;28.90;80.00
44359;DHT22;30077;52.474;13.326;2023-07-09T11:40:53;28.70;80.40
44359;DHT22;30077;52.474;13.326;2023-07-09T11:45:57;28.90;80.30
44359;DHT22;30077;52.474;13.326;2023-07-09T11:51:15;28.90;79.20
44359;DHT22;30077;52.474;13.326;2023-07-09T11:56:22;29.10;78.50
44359;DHT22;30077;52.474;13.326;2023-07-09T12:01:29;29.10;78.40
44359;DHT22;30077;52.474;13.326;2023-07-09T12:06:37;29.30;79.60
44359;DHT22;30077;52.474;13.326;2023-07-09T12:11:44;29.40;79.10
44359;DHT22;30077;52.474;13.326;2023-07-09T12:16:49;29.30;77.40
44359;DHT22;30077;52.474;13.326;2023-07-09T12:21:58;29.50;76.80
44359;DHT22;30077;52.474;13.326;2023-07-09T12:27:01;29.70;76.70
44359;DHT22;30077;52.474;13.326;2023-07-09T12:32:16;29.50;76.80
44359;DHT22;30077;52.474;13.326;2023-07-09T12:37:18;29.50;77.80
44359;DHT22;30077;52.474;13.326;2023-07-09T12:42:35;29.70;76.90
44359;DHT22;30077;52.474;13.326;2023-07-09T12:47:36;29.90;75.70
44359;DHT22;30077;52.474;13.326;2023-07-09T12:52:45;29.90;76.10
44359;DHT22;30077;52.474;13.326;2023-07-09T12:57:48;30.00;75.50
44359;DHT22;30077;52.474;13.326;2023-07-09T13:02:55;29.90;74.00
44359;DHT22;30077;52.474;13.326;2023-07-09T13:08:00;30.10;74.80
44359;DHT22;30077;52.474;13.326;2023-07-09T13:13:03;30.40;74.70
44359;DHT22;30077;52.474;13.326;2023-07-09T13:18:10;30.50;74.10
44359;DHT22;30077;52.474;13.326;2023-07-09T13:23:14;30.50;74.40
44359;DHT22;30077;52.474;13.326;2023-07-09T13:28:19;30.60;73.60
44359;DHT22;30077;52.474;13.326;2023-07-09T13:33:21;30.70;73.00
44359;DHT22;30077;52.474;13.326;2023-07-09T13:38:23;30.70;73.40
44359;DHT22;30077;52.474;13.326;2023-07-09T13:43:30;30.80;73.70
44359;DHT22;30077;52.474;13.326;2023-07-09T13:48:36;30.90;73.10
44359;DHT22;30077;52.474;13.326;2023-07-09T13:53:37;30.60;71.40
44359;DHT22;30077;52.474;13.326;2023-07-09T13:58:38;30.50;72.90
44359;DHT22;30077;52.474;13.326;2023-07-09T14:03:40;30.30;72.70
44359;DHT22;30077;52.474;13.326;2023-07-09T14:08:42;30.50;73.00
44359;DHT22;30077;52.474;13.326;2023-07-09T14:13:43;30.80;72.70
44359;DHT22;30077;52.474;13.326;2023-07-09T14:18:44;31.00;72.20
44359;DHT22;30077;52.474;13.326;2023-07-09T14:23:45;31.10;72.30
44359;DHT22;30077;52.474;13.326;2023-07-09T14:28:45;31.20;72.50
44359;DHT22;30077;52.474;13.326;2023-07-09T14:33:46;31.10;72.10
44359;DHT22;30077;52.474;13.326;2023-07-09T14:38:47;31.20;72.00
44359;DHT22;30077;52.474;13.326;2023-07-09T14:43:48;31.10;71.80
44359;DHT22;30077;52.474;13.326;2023-07-09T14:48:49;31.10;71.40
44359;DHT22;30077;52.474;13.326;2023-07-09T14:53:50;31.10;71.60
44359;DHT22;30077;52.474;13.326;2023-07-09T14:58:50;31.10;71.20
44359;DHT22;30077;52.474;13.326;2023-07-09T15:03:51;31.20;70.40
44359;DHT22;30077;52.474;13.326;2023-07-09T15:08:52;31.40;71.60
44359;DHT22;30077;52.474;13.326;2023-07-09T15:13:53;31.50;70.30
44359;DHT22;30077;52.474;13.326;2023-07-09T15:18:54;31.10;70.70
44359;DHT22;30077;52.474;13.326;2023-07-09T15:23:55;31.40;71.50
44359;DHT22;30077;52.474;13.326;2023-07-09T15:28:55;31.20;69.80
44359;DHT22;30077;52.474;13.326;2023-07-09T15:33:56;31.00;70.50
44359;DHT22;30077;52.474;13.326;2023-07-09T15:38:56;31.20;70.60
44359;DHT22;30077;52.474;13.326;2023-07-09T15:43:58;31.40;70.90
44359;DHT22;30077;52.474;13.326;2023-07-09T15:48:59;31.70;70.50
44359;DHT22;30077;52.474;13.326;2023-07-09T15:53:59;32.00;70.90
44359;DHT22;30077;52.474;13.326;2023-07-09T15:59:00;32.10;70.40
44359;DHT22;30077;52.474;13.326;2023-07-09T16:04:02;31.70;69.30
44359;DHT22;30077;52.474;13.326;2023-07-09T16:09:08;31.80;69.20
44359;DHT22;30077;52.474;13.326;2023-07-09T16:14:29;32.20;69.90
44359;DHT22;30077;52.474;13.326;2023-07-09T16:19:31;32.20;68.00
44359;DHT22;30077;52.474;13.326;2023-07-09T16:24:34;31.90;68.40
44359;DHT22;30077;52.474;13.326;2023-07-09T16:29:39;32.00;68.20
44359;DHT22;30077;52.474;13.326;2023-07-09T16:34:39;32.50;68.30
44359;DHT22;30077;52.474;13.326;2023-07-09T16:39:42;33.10;66.90
44359;DHT22;30077;52.474;13.326;2023-07-09T16:44:43;33.70;66.40
44359;DHT22;30077;52.474;13.326;2023-07-09T16:49:44;33.10;66.40
44359;DHT22;30077;52.474;13.326;2023-07-09T16:54:47;33.00;67.50
44359;DHT22;30077;52.474;13.326;2023-07-09T16:59:49;32.60;66.90
44359;DHT22;30077;52.474;13.326;2023-07-09T17:04:50;32.50;67.50
44359;DHT22;30077;52.474;13.326;2023-07-09T17:09:55;32.40;67.90
44359;DHT22;30077;52.474;13.326;2023-07-09T17:14:56;31.70;68.30
44359;DHT22;30077;52.474;13.326;2023-07-09T17:19:58;31.40;68.90
44359;DHT22;30077;52.474;13.326;2023-07-09T17:25:00;31.20;68.90
44359;DHT22;30077;52.474;13.326;2023-07-09T17:30:04;30.90;69.10
44359;DHT22;30077;52.474;13.326;2023-07-09T17:35:10;30.60;69.60
44359;DHT22;30077;52.474;13.326;2023-07-09T17:40:26;30.40;70.00
44359;DHT22;30077;52.474;13.326;2023-07-09T17:45:28;30.30;70.70
44359;DHT22;30077;52.474;13.326;2023-07-09T17:50:31;30.00;71.00
44359;DHT22;30077;52.474;13.326;2023-07-09T17:55:32;30.10;71.20
44359;DHT22;30077;52.474;13.326;2023-07-09T18:00:32;30.00;71.90
44359;DHT22;30077;52.474;13.326;2023-07-09T18:05:34;30.00;72.50
44359;DHT22;30077;52.474;13.326;2023-07-09T18:10:35;29.90;73.00
44359;DHT22;30077;52.474;13.326;2023-07-09T18:15:38;29.50;73.40
44359;DHT22;30077;52.474;13.326;2023-07-09T18:20:39;29.40;73.70
44359;DHT22;30077;52.474;13.326;2023-07-09T18:25:42;29.30;74.20
44359;DHT22;30077;52.474;13.326;2023-07-09T18:30:43;29.00;73.80
44359;DHT22;30077;52.474;13.326;2023-07-09T18:35:45;28.80;74.40
44359;DHT22;30077;52.474;13.326;2023-07-09T18:40:46;28.60;75.00
44359;DHT22;30077;52.474;13.326;2023-07-09T18:45:47;28.50;75.50
44359;DHT22;30077;52.474;13.326;2023-07-09T18:50:53;28.20;76.10
44359;DHT22;30077;52.474;13.326;2023-07-09T18:55:56;28.10;76.00
44359;DHT22;30077;52.474;13.326;2023-07-09T19:00:59;28.00;76.50
44359;DHT22;30077;52.474;13.326;2023-07-09T19:06:02;27.70;76.90
44359;DHT22;30077;52.474;13.326;2023-07-09T19:11:03;27.60;77.10
44359;DHT22;30077;52.474;13.326;2023-07-09T19:16:24;27.40;77.40
44359;DHT22;30077;52.474;13.326;2023-07-09T19:21:29;27.20;78.10
44359;DHT22;30077;52.474;13.326;2023-07-09T19:26:30;27.00;78.00
44359;DHT22;30077;52.474;13.326;2023-07-09T19:31:32;26.90;78.70
44359;DHT22;30077;52.474;13.326;2023-07-09T19:36:33;26.70;78.90
44359;DHT22;30077;52.474;13.326;2023-07-09T19:41:35;26.70;78.80
44359;DHT22;30077;52.474;13.326;2023-07-09T19:46:36;26.60;78.60
44359;DHT22;30077;52.474;13.326;2023-07-09T19:51:36;26.60;78.30
44359;DHT22;30077;52.474;13.326;2023-07-09T19:56:37;26.40;78.50
44359;DHT22;30077;52.474;13.326;2023-07-09T20:01:38;26.30;78.70
44359;DHT22;30077;52.474;13.326;2023-07-09T20:06:39;26.20;78.80
44359;DHT22;30077;52.474;13.326;2023-07-09T20:11:41;26.10;79.30
44359;DHT22;30077;52.474;13.326;2023-07-09T20:16:43;26.10;79.10
44359;DHT22;30077;52.474;13.326;2023-07-09T20:21:44;26.10;79.40
44359;DHT22;30077;52.474;13.326;2023-07-09T20:26:45;25.90;79.80
44359;DHT22;30077;52.474;13.326;2023-07-09T20:31:48;25.90;80.30
44359;DHT22;30077;52.474;13.326;2023-07-09T20:36:51;25.70;80.70
44359;DHT22;30077;52.474;13.326;2023-07-09T20:41:52;25.70;81.20
44359;DHT22;30077;52.474;13.326;2023-07-09T20:46:53;25.60;81.10
44359;DHT22;30077;52.474;13.326;2023-07-09T20:51:54;25.60;81.00
44359;DHT22;30077;52.474;13.326;2023-07-09T20:56:59;25.50;80.80
44359;DHT22;30077;52.474;13.326;2023-07-09T21:02:00;25.60;79.60
44359;DHT22;30077;52.474;13.326;2023-07-09T21:07:01;25.50;80.00
44359;DHT22;30077;52.474;13.326;2023-07-09T21:12:09;25.40;80.90
44359;DHT22;30077;52.474;13.326;2023-07-09T21:17:17;25.30;80.90
44359;DHT22;30077;52.474;13.326;2023-07-09T21:22:18;25.30;81.20
44359;DHT22;30077;52.474;13.326;2023-07-09T21:27:20;25.20;81.10
44359;DHT22;30077;52.474;13.326;2023-07-09T21:32:28;25.20;81.20
44359;DHT22;30077;52.474;13.326;2023-07-09T21:37:30;25.10;81.00
44359;DHT22;30077;52.474;13.326;2023-07-09T21:42:30;25.10;81.60
44359;DHT22;30077;52.474;13.326;2023-07-09T21:47:31;25.00;81.30
44359;DHT22;30077;52.474;13.326;2023-07-09T21:52:32;25.00;81.40
44359;DHT22;30077;52.474;13.326;2023-07-09T21:57:33;25.00;81.60
44359;DHT22;30077;52.474;13.326;2023-07-09T22:02:34;25.00;80.80
44359;DHT22;30077;52.474;13.326;2023-07-09T22:07:35;25.00;81.20
44359;DHT22;30077;52.474;13.326;2023-07-09T22:12:36;24.90;80.80
44359;DHT22;30077;52.474;13.326;2023-07-09T22:17:36;24.80;81.10
44359;DHT22;30077;52.474;13.326;2023-07-09T22:22:37;24.70;81.70
44359;DHT22;30077;52.474;13.326;2023-07-09T22:27:38;24.70;82.10
44359;DHT22;30077;52.474;13.326;2023-07-09T22:32:40;24.60;82.20
44359;DHT22;30077;52.474;13.326;2023-07-09T22:37:44;24.50;82.70
44359;DHT22;30077;52.474;13.326;2023-07-09T22:42:47;24.50;83.00
44359;DHT22;30077;52.474;13.326;2023-07-09T22:47:55;24.40;83.20
44359;DHT22;30077;52.474;13.326;2023-07-09T22:52:59;24.40;83.30
44359;DHT22;30077;52.474;13.326;2023-07-09T22:58:02;24.30;83.20
44359;DHT22;30077;52.474;13.326;2023-07-09T23:03:14;24.30;83.70
44359;DHT22;30077;52.474;13.326;2023-07-09T23:08:25;24.20;83.50
44359;DHT22;30077;52.474;13.326;2023-07-09T23:13:33;24.20;84.00
44359;DHT22;30077;52.474;13.326;2023-07-09T23:18:34;24.10;83.20
44359;DHT22;30077;52.474;13.326;2023-07-09T23:23:34;24.10;83.70
44359;DHT22;30077;52.474;13.326;2023-07-09T23:28:35;24.10;83.40
44359;DHT22;30077;52.474;13.326;2023-07-09T23:33:36;24.10;83.10
44359;DHT22;30077;52.474;13.326;2023-07-09T23:38:37;24.10;82.60
44359;DHT22;30077;52.474;13.326;2023-07-09T23:43:39;24.10;82.80
44359;DHT22;30077;52.474;13.326;2023-07-09T23:48:43;24.10;82.60
44359;DHT22;30077;52.474;13.326;2023-07-09T23:53:44;24.00;82.30
44359;DHT22;30077;52.474;13.326;2023-07-09T23:58:45;24.00;82.30
